sensor_id;sensor_type;location;lat;lon;timestamp;temperature;humidity
80695;DHT22;70059;42.702;23.312;2023-09-07T00:01:18;21.00;59.60
80695;DHT22;70059;42.702;23.312;2023-09-07T00:03:44;20.80;58.90
80695;DHT22;70059;42.702;23.312;2023-09-07T00:06:10;21.00;58.60
80695;DHT22;70059;42.702;23.312;2023-09-07T00:08:36;21.00;57.90
80695;DHT22;70059;42.702;23.312;2023-09-07T00:11:08;21.00;58.30
80695;DHT22;70059;42.702;23.312;2023-09-07T00:13:37;21.00;58.30
80695;DHT22;70059;42.702;23.312;2023-09-07T00:16:04;20.80;58.30
80695;DHT22;70059;42.702;23.312;2023-09-07T00:18:31;21.00;58.50
80695;DHT22;70059;42.702;23.312;2023-09-07T00:20:57;21.00;57.70
80695;DHT22;70059;42.702;23.312;2023-09-07T00:23:22;21.10;57.10
80695;DHT22;70059;42.702;23.312;2023-09-07T00:25:48;21.20;57.20
80695;DHT22;70059;42.702;23.312;2023-09-07T00:28:14;21.30;56.80
80695;DHT22;70059;42.702;23.312;2023-09-07T00:30:41;21.50;56.50
80695;DHT22;70059;42.702;23.312;2023-09-07T00:33:08;21.60;56.30
80695;DHT22;70059;42.702;23.312;2023-09-07T00:35:33;21.50;56.00
80695;DHT22;70059;42.702;23.312;2023-09-07T00:38:00;21.50;56.10
80695;DHT22;70059;42.702;23.312;2023-09-07T00:40:25;21.50;56.20
80695;DHT22;70059;42.702;23.312;2023-09-07T00:42:52;21.50;56.50
80695;DHT22;70059;42.702;23.312;2023-09-07T00:45:18;21.50;56.90
80695;DHT22;70059;42.702;23.312;2023-09-07T00:47:44;21.40;57.30
80695;DHT22;70059;42.702;23.312;2023-09-07T00:50:10;21.10;58.60
80695;DHT22;70059;42.702;23.312;2023-09-07T00:52:42;21.00;59.00
80695;DHT22;70059;42.702;23.312;2023-09-07T00:55:09;20.90;59.70
80695;DHT22;70059;42.702;23.312;2023-09-07T00:57:35;21.00;59.40
80695;DHT22;70059;42.702;23.312;2023-09-07T01:00:03;21.00;59.20
80695;DHT22;70059;42.702;23.312;2023-09-07T01:02:30;21.10;58.80
80695;DHT22;70059;42.702;23.312;2023-09-07T01:04:56;21.30;58.40
80695;DHT22;70059;42.702;23.312;2023-09-07T01:07:35;21.00;58.70
80695;DHT22;70059;42.702;23.312;2023-09-07T01:10:02;21.10;58.80
80695;DHT22;70059;42.702;23.312;2023-09-07T01:12:28;21.00;59.20
80695;DHT22;70059;42.702;23.312;2023-09-07T01:14:54;21.00;59.20
80695;DHT22;70059;42.702;23.312;2023-09-07T01:17:21;21.20;59.10
80695;DHT22;70059;42.702;23.312;2023-09-07T01:19:52;21.10;59.10
80695;DHT22;70059;42.702;23.312;2023-09-07T01:22:19;21.10;59.40
80695;DHT22;70059;42.702;23.312;2023-09-07T01:24:48;21.20;59.40
80695;DHT22;70059;42.702;23.312;2023-09-07T01:27:14;21.20;59.30
80695;DHT22;70059;42.702;23.312;2023-09-07T01:29:40;21.30;59.20
80695;DHT22;70059;42.702;23.312;2023-09-07T01:32:06;21.40;58.80
80695;DHT22;70059;42.702;23.312;2023-09-07T01:34:32;21.40;58.90
80695;DHT22;70059;42.702;23.312;2023-09-07T01:36:58;21.50;58.90
80695;DHT22;70059;42.702;23.312;2023-09-07T01:39:24;21.40;59.20
80695;DHT22;70059;42.702;23.312;2023-09-07T01:41:49;21.40;59.20
80695;DHT22;70059;42.702;23.312;2023-09-07T01:44:15;21.40;59.60
80695;DHT22;70059;42.702;23.312;2023-09-07T01:46:41;21.40;59.40
80695;DHT22;70059;42.702;23.312;2023-09-07T01:49:06;21.40;59.00
80695;DHT22;70059;42.702;23.312;2023-09-07T01:51:32;21.40;59.40
80695;DHT22;70059;42.702;23.312;2023-09-07T01:53:58;21.40;59.40
80695;DHT22;70059;42.702;23.312;2023-09-07T01:56:24;21.40;59.20
80695;DHT22;70059;42.702;23.312;2023-09-07T01:58:50;21.40;59.10
80695;DHT22;70059;42.702;23.312;2023-09-07T02:01:29;21.40;59.40
80695;DHT22;70059;42.702;23.312;2023-09-07T02:03:55;21.40;59.30
80695;DHT22;70059;42.702;23.312;2023-09-07T02:06:21;21.20;59.70
80695;DHT22;70059;42.702;23.312;2023-09-07T02:08:47;21.30;59.90
80695;DHT22;70059;42.702;23.312;2023-09-07T02:11:14;21.30;59.90
80695;DHT22;70059;42.702;23.312;2023-09-07T02:13:43;21.20;60.20
80695;DHT22;70059;42.702;23.312;2023-09-07T02:16:09;21.30;60.20
80695;DHT22;70059;42.702;23.312;2023-09-07T02:18:36;21.30;60.10
80695;DHT22;70059;42.702;23.312;2023-09-07T02:21:06;21.00;60.80
80695;DHT22;70059;42.702;23.312;2023-09-07T02:23:33;21.00;61.20
80695;DHT22;70059;42.702;23.312;2023-09-07T02:25:59;21.00;60.80
80695;DHT22;70059;42.702;23.312;2023-09-07T02:28:25;21.00;60.80
80695;DHT22;70059;42.702;23.312;2023-09-07T02:30:52;21.20;61.20
80695;DHT22;70059;42.702;23.312;2023-09-07T02:33:17;21.20;61.40
80695;DHT22;70059;42.702;23.312;2023-09-07T02:35:43;21.30;60.40
80695;DHT22;70059;42.702;23.312;2023-09-07T02:38:10;21.20;60.30
80695;DHT22;70059;42.702;23.312;2023-09-07T02:40:43;21.20;60.90
80695;DHT22;70059;42.702;23.312;2023-09-07T02:43:09;21.20;60.80
80695;DHT22;70059;42.702;23.312;2023-09-07T02:45:35;21.20;60.80
80695;DHT22;70059;42.702;23.312;2023-09-07T02:48:01;21.20;61.30
80695;DHT22;70059;42.702;23.312;2023-09-07T02:50:31;21.10;61.40
80695;DHT22;70059;42.702;23.312;2023-09-07T02:52:57;21.20;61.30
80695;DHT22;70059;42.702;23.312;2023-09-07T02:55:24;21.00;61.20
80695;DHT22;70059;42.702;23.312;2023-09-07T02:57:49;20.80;62.40
80695;DHT22;70059;42.702;23.312;2023-09-07T03:00:15;20.60;63.00
80695;DHT22;70059;42.702;23.312;2023-09-07T03:02:43;20.30;64.70
80695;DHT22;70059;42.702;23.312;2023-09-07T03:05:09;20.20;64.70
80695;DHT22;70059;42.702;23.312;2023-09-07T03:07:35;20.40;64.70
80695;DHT22;70059;42.702;23.312;2023-09-07T03:10:01;20.40;64.50
80695;DHT22;70059;42.702;23.312;2023-09-07T03:12:27;20.20;64.80
80695;DHT22;70059;42.702;23.312;2023-09-07T03:14:53;20.30;65.50
80695;DHT22;70059;42.702;23.312;2023-09-07T03:17:19;20.20;64.70
80695;DHT22;70059;42.702;23.312;2023-09-07T03:19:46;20.20;65.30
80695;DHT22;70059;42.702;23.312;2023-09-07T03:22:13;20.30;65.40
80695;DHT22;70059;42.702;23.312;2023-09-07T03:24:39;20.50;65.50
80695;DHT22;70059;42.702;23.312;2023-09-07T03:27:05;20.40;65.50
80695;DHT22;70059;42.702;23.312;2023-09-07T03:29:33;20.50;65.50
80695;DHT22;70059;42.702;23.312;2023-09-07T03:32:02;20.60;64.90
80695;DHT22;70059;42.702;23.312;2023-09-07T03:34:28;20.60;64.90
80695;DHT22;70059;42.702;23.312;2023-09-07T03:36:54;20.70;65.00
80695;DHT22;70059;42.702;23.312;2023-09-07T03:39:19;20.80;64.50
80695;DHT22;70059;42.702;23.312;2023-09-07T03:41:47;20.80;66.20
80695;DHT22;70059;42.702;23.312;2023-09-07T03:44:13;20.80;64.80
80695;DHT22;70059;42.702;23.312;2023-09-07T03:46:39;20.70;64.90
80695;DHT22;70059;42.702;23.312;2023-09-07T03:49:04;20.70;65.40
80695;DHT22;70059;42.702;23.312;2023-09-07T03:51:30;20.60;65.50
80695;DHT22;70059;42.702;23.312;2023-09-07T03:53:56;20.60;66.10
80695;DHT22;70059;42.702;23.312;2023-09-07T03:56:22;20.70;66.10
80695;DHT22;70059;42.702;23.312;2023-09-07T03:58:48;20.50;66.50
80695;DHT22;70059;42.702;23.312;2023-09-07T04:01:14;20.50;66.70
80695;DHT22;70059;42.702;23.312;2023-09-07T04:03:40;20.20;67.70
80695;DHT22;70059;42.702;23.312;2023-09-07T04:06:07;20.10;68.30
80695;DHT22;70059;42.702;23.312;2023-09-07T04:08:33;20.00;69.10
80695;DHT22;70059;42.702;23.312;2023-09-07T04:11:03;20.10;69.30
80695;DHT22;70059;42.702;23.312;2023-09-07T04:13:29;20.20;68.20
80695;DHT22;70059;42.702;23.312;2023-09-07T04:15:55;20.10;68.80
80695;DHT22;70059;42.702;23.312;2023-09-07T04:18:21;20.20;69.10
80695;DHT22;70059;42.702;23.312;2023-09-07T04:20:46;20.40;68.20
80695;DHT22;70059;42.702;23.312;2023-09-07T04:23:12;20.30;67.70
80695;DHT22;70059;42.702;23.312;2023-09-07T04:25:38;20.40;68.10
80695;DHT22;70059;42.702;23.312;2023-09-07T04:28:06;20.40;67.70
80695;DHT22;70059;42.702;23.312;2023-09-07T04:30:39;20.50;67.90
80695;DHT22;70059;42.702;23.312;2023-09-07T04:33:05;20.70;66.90
80695;DHT22;70059;42.702;23.312;2023-09-07T04:35:32;20.70;66.40
80695;DHT22;70059;42.702;23.312;2023-09-07T04:37:58;20.80;66.40
80695;DHT22;70059;42.702;23.312;2023-09-07T04:40:24;20.90;65.80
80695;DHT22;70059;42.702;23.312;2023-09-07T04:42:50;20.80;66.00
80695;DHT22;70059;42.702;23.312;2023-09-07T04:45:16;20.90;65.80
80695;DHT22;70059;42.702;23.312;2023-09-07T04:47:41;21.00;65.10
80695;DHT22;70059;42.702;23.312;2023-09-07T04:50:08;21.00;65.10
80695;DHT22;70059;42.702;23.312;2023-09-07T04:52:33;21.10;65.10
80695;DHT22;70059;42.702;23.312;2023-09-07T04:55:00;21.10;64.90
80695;DHT22;70059;42.702;23.312;2023-09-07T04:57:26;21.20;64.40
80695;DHT22;70059;42.702;23.312;2023-09-07T04:59:52;21.20;64.10
80695;DHT22;70059;42.702;23.312;2023-09-07T05:02:18;21.20;64.30
80695;DHT22;70059;42.702;23.312;2023-09-07T05:04:45;21.30;64.10
80695;DHT22;70059;42.702;23.312;2023-09-07T05:07:10;21.40;63.80
80695;DHT22;70059;42.702;23.312;2023-09-07T05:09:36;21.40;63.20
80695;DHT22;70059;42.702;23.312;2023-09-07T05:12:02;21.40;63.60
80695;DHT22;70059;42.702;23.312;2023-09-07T05:14:28;21.50;63.40
80695;DHT22;70059;42.702;23.312;2023-09-07T05:16:55;21.60;62.40
80695;DHT22;70059;42.702;23.312;2023-09-07T05:19:22;21.60;62.60
80695;DHT22;70059;42.702;23.312;2023-09-07T05:21:48;21.70;61.90
80695;DHT22;70059;42.702;23.312;2023-09-07T05:24:14;21.70;62.00
80695;DHT22;70059;42.702;23.312;2023-09-07T05:26:41;21.70;62.10
80695;DHT22;70059;42.702;23.312;2023-09-07T05:29:08;21.70;62.00
80695;DHT22;70059;42.702;23.312;2023-09-07T05:31:33;21.80;61.00
80695;DHT22;70059;42.702;23.312;2023-09-07T05:33:59;21.80;61.30
80695;DHT22;70059;42.702;23.312;2023-09-07T05:36:26;21.70;61.60
80695;DHT22;70059;42.702;23.312;2023-09-07T05:38:52;21.80;60.50
80695;DHT22;70059;42.702;23.312;2023-09-07T05:41:18;21.80;60.40
80695;DHT22;70059;42.702;23.312;2023-09-07T05:43:45;21.90;60.40
80695;DHT22;70059;42.702;23.312;2023-09-07T05:46:11;22.00;60.30
80695;DHT22;70059;42.702;23.312;2023-09-07T05:48:36;22.00;60.40
80695;DHT22;70059;42.702;23.312;2023-09-07T05:51:02;22.10;59.70
80695;DHT22;70059;42.702;23.312;2023-09-07T05:53:29;22.10;59.50
80695;DHT22;70059;42.702;23.312;2023-09-07T05:55:54;22.10;59.80
80695;DHT22;70059;42.702;23.312;2023-09-07T05:58:20;22.30;58.30
80695;DHT22;70059;42.702;23.312;2023-09-07T06:00:46;22.50;58.50
80695;DHT22;70059;42.702;23.312;2023-09-07T06:03:13;22.70;57.80
80695;DHT22;70059;42.702;23.312;2023-09-07T06:05:38;22.80;57.60
80695;DHT22;70059;42.702;23.312;2023-09-07T06:08:06;22.90;56.90
80695;DHT22;70059;42.702;23.312;2023-09-07T06:10:32;23.00;56.70
80695;DHT22;70059;42.702;23.312;2023-09-07T06:12:58;23.00;56.10
80695;DHT22;70059;42.702;23.312;2023-09-07T06:15:24;23.20;56.40
80695;DHT22;70059;42.702;23.312;2023-09-07T06:17:49;23.30;55.60
80695;DHT22;70059;42.702;23.312;2023-09-07T06:20:15;23.50;54.90
80695;DHT22;70059;42.702;23.312;2023-09-07T06:22:41;23.90;53.60
80695;DHT22;70059;42.702;23.312;2023-09-07T06:25:07;24.40;52.00
80695;DHT22;70059;42.702;23.312;2023-09-07T06:27:33;24.70;50.90
80695;DHT22;70059;42.702;23.312;2023-09-07T06:29:59;25.00;49.20
80695;DHT22;70059;42.702;23.312;2023-09-07T06:32:31;25.40;47.50
80695;DHT22;70059;42.702;23.312;2023-09-07T06:34:58;25.70;47.40
80695;DHT22;70059;42.702;23.312;2023-09-07T06:37:24;25.80;46.00
80695;DHT22;70059;42.702;23.312;2023-09-07T06:39:50;26.40;45.30
80695;DHT22;70059;42.702;23.312;2023-09-07T06:42:16;26.40;43.30
80695;DHT22;70059;42.702;23.312;2023-09-07T06:44:42;26.90;41.90
80695;DHT22;70059;42.702;23.312;2023-09-07T06:47:09;27.50;40.20
80695;DHT22;70059;42.702;23.312;2023-09-07T06:49:34;27.60;38.60
80695;DHT22;70059;42.702;23.312;2023-09-07T06:52:00;28.00;38.60
80695;DHT22;70059;42.702;23.312;2023-09-07T06:54:29;28.40;37.90
80695;DHT22;70059;42.702;23.312;2023-09-07T06:56:55;29.00;37.10
80695;DHT22;70059;42.702;23.312;2023-09-07T06:59:20;29.70;35.10
80695;DHT22;70059;42.702;23.312;2023-09-07T07:01:46;29.70;34.30
80695;DHT22;70059;42.702;23.312;2023-09-07T07:04:12;29.30;34.00
80695;DHT22;70059;42.702;23.312;2023-09-07T07:06:38;29.50;34.20
80695;DHT22;70059;42.702;23.312;2023-09-07T07:09:05;29.70;33.30
80695;DHT22;70059;42.702;23.312;2023-09-07T07:11:31;29.80;32.70
80695;DHT22;70059;42.702;23.312;2023-09-07T07:13:57;29.80;33.00
80695;DHT22;70059;42.702;23.312;2023-09-07T07:16:22;30.40;31.40
80695;DHT22;70059;42.702;23.312;2023-09-07T07:18:48;31.30;29.70
80695;DHT22;70059;42.702;23.312;2023-09-07T07:21:14;32.20;28.60
80695;DHT22;70059;42.702;23.312;2023-09-07T07:23:39;32.40;27.20
80695;DHT22;70059;42.702;23.312;2023-09-07T07:26:05;32.70;27.40
80695;DHT22;70059;42.702;23.312;2023-09-07T07:28:31;33.10;26.30
80695;DHT22;70059;42.702;23.312;2023-09-07T07:30:56;32.60;27.10
80695;DHT22;70059;42.702;23.312;2023-09-07T07:33:22;32.50;27.30
80695;DHT22;70059;42.702;23.312;2023-09-07T07:35:48;33.00;25.80
80695;DHT22;70059;42.702;23.312;2023-09-07T07:38:14;33.60;25.50
80695;DHT22;70059;42.702;23.312;2023-09-07T07:40:40;34.10;24.70
80695;DHT22;70059;42.702;23.312;2023-09-07T07:43:06;33.80;24.50
80695;DHT22;70059;42.702;23.312;2023-09-07T07:45:32;33.10;25.20
80695;DHT22;70059;42.702;23.312;2023-09-07T07:48:02;32.90;25.50
80695;DHT22;70059;42.702;23.312;2023-09-07T07:50:30;33.00;25.40
80695;DHT22;70059;42.702;23.312;2023-09-07T07:52:56;32.30;26.70
80695;DHT22;70059;42.702;23.312;2023-09-07T07:55:22;32.00;26.80
80695;DHT22;70059;42.702;23.312;2023-09-07T07:57:48;31.60;27.70
80695;DHT22;70059;42.702;23.312;2023-09-07T08:00:14;31.80;27.40
80695;DHT22;70059;42.702;23.312;2023-09-07T08:02:40;31.30;28.00
80695;DHT22;70059;42.702;23.312;2023-09-07T08:05:06;31.30;27.70
80695;DHT22;70059;42.702;23.312;2023-09-07T08:07:31;31.20;27.70
80695;DHT22;70059;42.702;23.312;2023-09-07T08:09:57;31.90;26.60
80695;DHT22;70059;42.702;23.312;2023-09-07T08:12:23;32.50;26.90
80695;DHT22;70059;42.702;23.312;2023-09-07T08:14:48;33.50;24.50
80695;DHT22;70059;42.702;23.312;2023-09-07T08:17:14;33.50;24.20
80695;DHT22;70059;42.702;23.312;2023-09-07T08:19:40;33.60;23.50
80695;DHT22;70059;42.702;23.312;2023-09-07T08:22:06;33.60;23.80
80695;DHT22;70059;42.702;23.312;2023-09-07T08:24:32;34.80;23.10
80695;DHT22;70059;42.702;23.312;2023-09-07T08:26:57;35.90;20.90
80695;DHT22;70059;42.702;23.312;2023-09-07T08:29:25;36.90;19.70
80695;DHT22;70059;42.702;23.312;2023-09-07T08:31:53;38.30;18.00
80695;DHT22;70059;42.702;23.312;2023-09-07T08:34:19;37.80;18.00
80695;DHT22;70059;42.702;23.312;2023-09-07T08:36:46;37.80;17.80
80695;DHT22;70059;42.702;23.312;2023-09-07T08:39:12;38.80;17.50
80695;DHT22;70059;42.702;23.312;2023-09-07T08:41:42;39.80;15.80
80695;DHT22;70059;42.702;23.312;2023-09-07T08:44:21;38.20;17.00
80695;DHT22;70059;42.702;23.312;2023-09-07T08:46:50;37.20;18.20
80695;DHT22;70059;42.702;23.312;2023-09-07T08:49:17;37.30;18.80
80695;DHT22;70059;42.702;23.312;2023-09-07T08:51:49;37.40;18.30
80695;DHT22;70059;42.702;23.312;2023-09-07T08:54:15;38.50;17.40
80695;DHT22;70059;42.702;23.312;2023-09-07T08:56:41;39.10;16.90
80695;DHT22;70059;42.702;23.312;2023-09-07T08:59:07;39.30;16.30
80695;DHT22;70059;42.702;23.312;2023-09-07T09:01:33;38.90;16.90
80695;DHT22;70059;42.702;23.312;2023-09-07T09:04:00;38.90;16.50
80695;DHT22;70059;42.702;23.312;2023-09-07T09:06:26;38.60;16.90
80695;DHT22;70059;42.702;23.312;2023-09-07T09:08:54;38.80;16.50
80695;DHT22;70059;42.702;23.312;2023-09-07T09:11:22;38.40;17.00
80695;DHT22;70059;42.702;23.312;2023-09-07T09:13:51;39.20;16.00
80695;DHT22;70059;42.702;23.312;2023-09-07T09:16:18;40.00;15.40
80695;DHT22;70059;42.702;23.312;2023-09-07T09:18:50;40.50;14.40
80695;DHT22;70059;42.702;23.312;2023-09-07T09:21:25;41.00;14.10
80695;DHT22;70059;42.702;23.312;2023-09-07T09:23:52;41.20;13.80
80695;DHT22;70059;42.702;23.312;2023-09-07T09:26:19;40.80;13.80
80695;DHT22;70059;42.702;23.312;2023-09-07T09:28:45;38.10;16.20
80695;DHT22;70059;42.702;23.312;2023-09-07T09:31:12;37.00;17.40
80695;DHT22;70059;42.702;23.312;2023-09-07T09:33:41;36.50;18.00
80695;DHT22;70059;42.702;23.312;2023-09-07T09:36:08;35.00;19.20
80695;DHT22;70059;42.702;23.312;2023-09-07T09:38:35;34.00;20.50
80695;DHT22;70059;42.702;23.312;2023-09-07T09:41:01;33.30;22.00
80695;DHT22;70059;42.702;23.312;2023-09-07T09:43:29;34.00;21.20
80695;DHT22;70059;42.702;23.312;2023-09-07T09:45:55;34.80;21.00
80695;DHT22;70059;42.702;23.312;2023-09-07T09:48:21;35.10;20.50
80695;DHT22;70059;42.702;23.312;2023-09-07T09:50:47;35.80;20.20
80695;DHT22;70059;42.702;23.312;2023-09-07T09:53:20;36.10;19.00
80695;DHT22;70059;42.702;23.312;2023-09-07T09:55:48;36.60;18.20
80695;DHT22;70059;42.702;23.312;2023-09-07T09:58:16;36.80;18.20
80695;DHT22;70059;42.702;23.312;2023-09-07T10:00:46;36.30;18.40
80695;DHT22;70059;42.702;23.312;2023-09-07T10:03:34;35.80;19.70
80695;DHT22;70059;42.702;23.312;2023-09-07T10:06:18;35.00;21.10
80695;DHT22;70059;42.702;23.312;2023-09-07T10:09:02;34.50;22.20
80695;DHT22;70059;42.702;23.312;2023-09-07T10:11:34;34.00;21.80
80695;DHT22;70059;42.702;23.312;2023-09-07T10:14:05;33.30;23.20
80695;DHT22;70059;42.702;23.312;2023-09-07T10:16:47;32.70;23.40
80695;DHT22;70059;42.702;23.312;2023-09-07T10:19:18;32.20;24.30
80695;DHT22;70059;42.702;23.312;2023-09-07T10:21:44;31.80;24.40
80695;DHT22;70059;42.702;23.312;2023-09-07T10:24:10;31.60;24.70
80695;DHT22;70059;42.702;23.312;2023-09-07T10:29:26;31.50;25.20
80695;DHT22;70059;42.702;23.312;2023-09-07T10:31:53;31.30;25.80
80695;DHT22;70059;42.702;23.312;2023-09-07T10:34:19;31.00;24.60
80695;DHT22;70059;42.702;23.312;2023-09-07T10:36:46;30.90;25.20
80695;DHT22;70059;42.702;23.312;2023-09-07T10:41:48;30.70;26.20
80695;DHT22;70059;42.702;23.312;2023-09-07T10:44:13;30.40;26.50
80695;DHT22;70059;42.702;23.312;2023-09-07T10:49:18;29.60;27.60
80695;DHT22;70059;42.702;23.312;2023-09-07T10:51:45;29.60;27.70
80695;DHT22;70059;42.702;23.312;2023-09-07T10:56:42;29.80;28.50
80695;DHT22;70059;42.702;23.312;2023-09-07T10:59:08;30.20;27.10
80695;DHT22;70059;42.702;23.312;2023-09-07T11:01:34;30.70;26.60
80695;DHT22;70059;42.702;23.312;2023-09-07T11:03:59;31.30;25.70
80695;DHT22;70059;42.702;23.312;2023-09-07T11:06:26;31.60;24.60
80695;DHT22;70059;42.702;23.312;2023-09-07T11:08:52;31.60;25.20
80695;DHT22;70059;42.702;23.312;2023-09-07T11:11:17;31.60;24.60
80695;DHT22;70059;42.702;23.312;2023-09-07T11:13:43;31.30;24.60
80695;DHT22;70059;42.702;23.312;2023-09-07T11:16:09;31.30;26.00
80695;DHT22;70059;42.702;23.312;2023-09-07T11:18:35;31.20;25.30
80695;DHT22;70059;42.702;23.312;2023-09-07T11:21:02;31.20;25.70
80695;DHT22;70059;42.702;23.312;2023-09-07T11:23:33;31.10;26.30
80695;DHT22;70059;42.702;23.312;2023-09-07T11:26:13;30.60;26.80
80695;DHT22;70059;42.702;23.312;2023-09-07T11:28:41;30.30;27.30
80695;DHT22;70059;42.702;23.312;2023-09-07T11:31:08;30.00;27.30
80695;DHT22;70059;42.702;23.312;2023-09-07T11:33:33;29.90;27.80
80695;DHT22;70059;42.702;23.312;2023-09-07T11:36:00;29.60;27.90
80695;DHT22;70059;42.702;23.312;2023-09-07T11:38:29;29.40;28.90
80695;DHT22;70059;42.702;23.312;2023-09-07T11:41:00;29.30;28.30
80695;DHT22;70059;42.702;23.312;2023-09-07T11:43:25;29.20;28.70
80695;DHT22;70059;42.702;23.312;2023-09-07T11:45:51;29.00;29.00
80695;DHT22;70059;42.702;23.312;2023-09-07T11:48:17;29.00;29.60
80695;DHT22;70059;42.702;23.312;2023-09-07T11:50:43;29.00;28.80
80695;DHT22;70059;42.702;23.312;2023-09-07T11:53:09;29.20;28.30
80695;DHT22;70059;42.702;23.312;2023-09-07T11:55:35;29.40;27.60
80695;DHT22;70059;42.702;23.312;2023-09-07T11:58:02;29.60;27.70
80695;DHT22;70059;42.702;23.312;2023-09-07T12:00:28;29.60;27.50
80695;DHT22;70059;42.702;23.312;2023-09-07T12:02:56;29.70;28.40
80695;DHT22;70059;42.702;23.312;2023-09-07T12:05:22;29.70;27.30
80695;DHT22;70059;42.702;23.312;2023-09-07T12:07:49;29.50;27.70
80695;DHT22;70059;42.702;23.312;2023-09-07T12:10:14;29.40;28.00
80695;DHT22;70059;42.702;23.312;2023-09-07T12:12:40;29.30;28.20
80695;DHT22;70059;42.702;23.312;2023-09-07T12:15:07;29.10;28.80
80695;DHT22;70059;42.702;23.312;2023-09-07T12:17:34;29.10;28.00
80695;DHT22;70059;42.702;23.312;2023-09-07T12:20:00;28.90;29.00
80695;DHT22;70059;42.702;23.312;2023-09-07T12:22:26;28.90;28.40
80695;DHT22;70059;42.702;23.312;2023-09-07T12:24:52;29.00;29.00
80695;DHT22;70059;42.702;23.312;2023-09-07T12:27:19;29.00;28.50
80695;DHT22;70059;42.702;23.312;2023-09-07T12:29:45;29.20;28.10
80695;DHT22;70059;42.702;23.312;2023-09-07T12:32:10;29.30;28.00
80695;DHT22;70059;42.702;23.312;2023-09-07T12:34:37;29.10;28.00
80695;DHT22;70059;42.702;23.312;2023-09-07T12:37:02;29.10;27.70
80695;DHT22;70059;42.702;23.312;2023-09-07T12:39:34;29.00;28.40
80695;DHT22;70059;42.702;23.312;2023-09-07T12:42:00;29.00;28.80
80695;DHT22;70059;42.702;23.312;2023-09-07T12:44:26;28.90;28.70
80695;DHT22;70059;42.702;23.312;2023-09-07T12:46:52;28.70;28.70
80695;DHT22;70059;42.702;23.312;2023-09-07T12:49:18;28.60;29.00
80695;DHT22;70059;42.702;23.312;2023-09-07T12:51:45;28.70;29.30
80695;DHT22;70059;42.702;23.312;2023-09-07T12:54:12;28.70;29.30
80695;DHT22;70059;42.702;23.312;2023-09-07T12:56:38;28.60;30.00
80695;DHT22;70059;42.702;23.312;2023-09-07T12:59:04;28.70;29.60
80695;DHT22;70059;42.702;23.312;2023-09-07T13:01:30;28.20;29.40
80695;DHT22;70059;42.702;23.312;2023-09-07T13:03:56;28.10;29.80
80695;DHT22;70059;42.702;23.312;2023-09-07T13:06:22;28.10;30.10
80695;DHT22;70059;42.702;23.312;2023-09-07T13:08:48;28.10;29.40
80695;DHT22;70059;42.702;23.312;2023-09-07T13:11:13;28.10;29.40
80695;DHT22;70059;42.702;23.312;2023-09-07T13:13:39;28.10;29.10
80695;DHT22;70059;42.702;23.312;2023-09-07T13:16:05;28.20;29.00
80695;DHT22;70059;42.702;23.312;2023-09-07T13:18:30;28.10;29.10
80695;DHT22;70059;42.702;23.312;2023-09-07T13:20:57;27.90;29.90
80695;DHT22;70059;42.702;23.312;2023-09-07T13:23:27;28.00;30.00
80695;DHT22;70059;42.702;23.312;2023-09-07T13:25:53;28.00;30.60
80695;DHT22;70059;42.702;23.312;2023-09-07T13:28:19;28.00;30.60
80695;DHT22;70059;42.702;23.312;2023-09-07T13:30:45;28.30;29.20
80695;DHT22;70059;42.702;23.312;2023-09-07T13:33:11;28.50;29.70
80695;DHT22;70059;42.702;23.312;2023-09-07T13:35:36;28.50;29.00
80695;DHT22;70059;42.702;23.312;2023-09-07T13:38:02;28.90;28.80
80695;DHT22;70059;42.702;23.312;2023-09-07T13:40:28;29.90;27.80
80695;DHT22;70059;42.702;23.312;2023-09-07T13:42:55;30.80;26.20
80695;DHT22;70059;42.702;23.312;2023-09-07T13:45:22;31.60;25.20
80695;DHT22;70059;42.702;23.312;2023-09-07T13:47:48;31.80;25.20
80695;DHT22;70059;42.702;23.312;2023-09-07T13:50:13;31.80;25.10
80695;DHT22;70059;42.702;23.312;2023-09-07T13:52:39;31.50;24.70
80695;DHT22;70059;42.702;23.312;2023-09-07T13:55:07;31.00;26.80
80695;DHT22;70059;42.702;23.312;2023-09-07T13:57:33;30.50;30.40
80695;DHT22;70059;42.702;23.312;2023-09-07T14:00:00;30.20;32.20
80695;DHT22;70059;42.702;23.312;2023-09-07T14:02:25;29.90;34.50
80695;DHT22;70059;42.702;23.312;2023-09-07T14:04:51;29.20;36.90
80695;DHT22;70059;42.702;23.312;2023-09-07T14:07:17;28.70;36.80
80695;DHT22;70059;42.702;23.312;2023-09-07T14:09:43;28.40;37.90
80695;DHT22;70059;42.702;23.312;2023-09-07T14:12:09;27.90;38.00
80695;DHT22;70059;42.702;23.312;2023-09-07T14:14:35;27.70;38.60
80695;DHT22;70059;42.702;23.312;2023-09-07T14:17:01;27.50;38.40
80695;DHT22;70059;42.702;23.312;2023-09-07T14:19:27;27.20;38.90
80695;DHT22;70059;42.702;23.312;2023-09-07T14:21:56;27.00;38.20
80695;DHT22;70059;42.702;23.312;2023-09-07T14:24:23;26.90;37.60
80695;DHT22;70059;42.702;23.312;2023-09-07T14:26:49;26.80;38.10
80695;DHT22;70059;42.702;23.312;2023-09-07T14:29:14;26.60;38.60
80695;DHT22;70059;42.702;23.312;2023-09-07T14:31:40;26.50;37.90
80695;DHT22;70059;42.702;23.312;2023-09-07T14:34:08;26.50;37.90
80695;DHT22;70059;42.702;23.312;2023-09-07T14:36:33;26.50;39.20
80695;DHT22;70059;42.702;23.312;2023-09-07T14:38:59;26.40;38.60
80695;DHT22;70059;42.702;23.312;2023-09-07T14:41:25;26.40;39.10
80695;DHT22;70059;42.702;23.312;2023-09-07T14:43:50;26.30;36.80
80695;DHT22;70059;42.702;23.312;2023-09-07T14:46:16;26.30;39.10
80695;DHT22;70059;42.702;23.312;2023-09-07T14:48:43;26.30;38.70
80695;DHT22;70059;42.702;23.312;2023-09-07T14:51:09;26.20;39.10
80695;DHT22;70059;42.702;23.312;2023-09-07T14:53:34;26.10;39.40
80695;DHT22;70059;42.702;23.312;2023-09-07T14:56:00;26.10;37.60
80695;DHT22;70059;42.702;23.312;2023-09-07T14:58:25;26.10;39.10
80695;DHT22;70059;42.702;23.312;2023-09-07T15:00:51;26.00;36.00
80695;DHT22;70059;42.702;23.312;2023-09-07T15:03:17;26.00;36.00
80695;DHT22;70059;42.702;23.312;2023-09-07T15:05:42;26.00;35.60
80695;DHT22;70059;42.702;23.312;2023-09-07T15:08:08;25.90;36.00
80695;DHT22;70059;42.702;23.312;2023-09-07T15:10:34;25.90;35.30
80695;DHT22;70059;42.702;23.312;2023-09-07T15:13:00;25.80;35.70
80695;DHT22;70059;42.702;23.312;2023-09-07T15:15:30;25.80;35.20
80695;DHT22;70059;42.702;23.312;2023-09-07T15:18:02;25.70;36.70
80695;DHT22;70059;42.702;23.312;2023-09-07T15:20:28;25.50;36.70
80695;DHT22;70059;42.702;23.312;2023-09-07T15:22:54;25.50;36.90